createdAt,value
2018-07-05T00:00:52.725Z,99.20
2018-07-05T00:03:32.401Z,99.40
2018-07-05T00:06:12.128Z,99.10
2018-07-05T00:08:51.685Z,99.30
2018-07-05T00:11:34.804Z,99.50
2018-07-05T00:14:14.860Z,99.60
2018-07-05T00:16:54.341Z,99.90
2018-07-05T00:19:33.849Z,99.90
2018-07-05T00:22:13.716Z,99.90
2018-07-05T00:24:53.152Z,99.90
2018-07-05T00:27:32.610Z,99.90
2018-07-05T00:30:12.656Z,99.90
2018-07-05T00:32:52.091Z,99.90
2018-07-05T00:35:32.143Z,99.90
2018-07-05T00:38:11.943Z,99.90
2018-07-05T00:40:52.620Z,99.90
2018-07-05T00:43:32.261Z,99.90
2018-07-05T00:46:12.057Z,99.90
2018-07-05T00:48:52.040Z,99.90
2018-07-05T00:51:32.596Z,99.90
2018-07-05T00:54:12.288Z,99.90
2018-07-05T00:56:52.040Z,99.90
2018-07-05T00:59:31.846Z,99.90
2018-07-05T01:02:12.593Z,99.90
2018-07-05T01:04:52.249Z,99.90
2018-07-05T01:07:32.531Z,99.90
2018-07-05T01:10:12.133Z,99.90
2018-07-05T01:12:52.858Z,99.90
2018-07-05T01:15:32.365Z,99.90
2018-07-05T01:18:12.193Z,99.90
2018-07-05T01:20:51.949Z,99.90
2018-07-05T01:23:32.574Z,99.90
2018-07-05T01:26:12.054Z,99.90
2018-07-05T01:28:52.068Z,99.90
2018-07-05T01:31:32.779Z,99.90
2018-07-05T01:34:12.296Z,99.90
2018-07-05T01:36:51.964Z,99.90
2018-07-05T01:39:32.671Z,99.90
2018-07-05T01:42:12.256Z,99.90
2018-07-05T01:44:52.112Z,99.90
2018-07-05T01:47:31.873Z,99.90
2018-07-05T01:50:11.466Z,99.90
2018-07-05T01:52:52.376Z,99.90
2018-07-05T01:55:31.968Z,99.90
2018-07-05T01:58:12.817Z,99.90
2018-07-05T02:00:52.425Z,99.90
2018-07-05T02:03:32.178Z,99.90
2018-07-05T02:06:11.749Z,99.90
2018-07-05T02:08:52.714Z,99.90
2018-07-05T02:11:32.515Z,99.90
2018-07-05T02:14:12.040Z,99.90
2018-07-05T02:16:52.096Z,99.90
2018-07-05T02:19:32.076Z,99.90
2018-07-05T02:22:12.048Z,99.90
2018-07-05T02:24:51.932Z,99.90
2018-07-05T02:27:32.720Z,99.90
2018-07-05T02:30:12.221Z,99.90
2018-07-05T02:32:52.494Z,99.90
2018-07-05T02:35:32.220Z,99.90
2018-07-05T02:38:17.677Z,99.90
2018-07-05T02:40:57.269Z,99.90
2018-07-05T02:43:36.817Z,99.90
2018-07-05T02:46:16.344Z,99.90
2018-07-05T02:48:59.684Z,99.90
2018-07-05T02:51:39.585Z,99.90
2018-07-05T02:54:23.429Z,99.90
2018-07-05T02:57:03.026Z,99.90
2018-07-05T02:59:42.591Z,99.90
2018-07-05T03:02:22.246Z,99.90
2018-07-05T03:05:02.288Z,99.90
2018-07-05T03:07:41.884Z,99.90
2018-07-05T03:10:21.400Z,99.90
2018-07-05T03:13:01.973Z,99.90
2018-07-05T03:15:42.677Z,99.90
2018-07-05T03:18:22.235Z,99.90
2018-07-05T03:21:01.799Z,99.90
2018-07-05T03:23:43.280Z,99.90
2018-07-05T03:26:22.888Z,99.90
2018-07-05T03:29:02.517Z,99.90
2018-07-05T03:31:42.089Z,99.90
2018-07-05T03:34:21.613Z,99.90
2018-07-05T03:37:02.887Z,99.90
2018-07-05T03:39:42.356Z,99.90
2018-07-05T03:42:22.536Z,99.90
2018-07-05T03:45:02.157Z,99.90
2018-07-05T03:47:41.891Z,99.90
2018-07-05T03:50:21.417Z,99.90
2018-07-05T03:53:02.704Z,99.90
2018-07-05T03:55:42.394Z,99.90
2018-07-05T03:58:22.104Z,99.90
2018-07-05T04:01:02.276Z,99.90
2018-07-05T04:03:42.225Z,99.90
2018-07-05T04:06:22.252Z,99.90
2018-07-05T04:11:53.714Z,99.90
2018-07-05T04:14:33.696Z,99.90
2018-07-05T04:17:12.978Z,99.90
2018-07-05T04:19:53.088Z,99.90
2018-07-05T04:22:32.805Z,99.90
2018-07-05T04:25:12.422Z,99.80
2018-07-05T04:27:51.936Z,99.80
2018-07-05T04:30:31.918Z,99.90
2018-07-05T04:33:12.701Z,99.90
2018-07-05T04:35:52.443Z,99.70
2018-07-05T04:38:32.122Z,99.60
2018-07-05T04:41:11.700Z,99.30
2018-07-05T04:43:52.357Z,99.10
2018-07-05T04:46:32.791Z,98.90
2018-07-05T04:49:12.383Z,98.20
2018-07-05T04:51:51.901Z,98.00
2018-07-05T04:54:32.536Z,97.40
2018-07-05T04:57:12.755Z,97.10
2018-07-05T04:59:52.445Z,96.60
2018-07-05T05:02:31.905Z,96.20
2018-07-05T05:05:12.922Z,95.90
2018-07-05T05:07:55.393Z,96.10
2018-07-05T05:10:35.383Z,95.50
2018-07-05T05:13:18.838Z,95.30
2018-07-05T05:16:02.296Z,94.90
2018-07-05T05:18:41.664Z,95.10
2018-07-05T05:21:21.714Z,93.80
2018-07-05T05:24:02.720Z,92.50
2018-07-05T05:26:42.287Z,91.90
2018-07-05T05:29:22.008Z,91.00
2018-07-05T05:32:01.543Z,89.00
2018-07-05T05:34:41.170Z,86.90
2018-07-05T05:37:20.793Z,86.00
2018-07-05T05:40:04.293Z,82.70
2018-07-05T05:42:43.879Z,83.50
2018-07-05T05:45:23.364Z,83.00
2018-07-05T05:48:02.924Z,82.50
2018-07-05T05:50:42.790Z,79.60
2018-07-05T05:53:22.979Z,76.80
2018-07-05T05:56:02.597Z,75.10
2018-07-05T05:58:42.650Z,73.20
2018-07-05T06:01:22.962Z,71.80
2018-07-05T06:04:02.568Z,68.30
2018-07-05T06:06:42.662Z,70.30
2018-07-05T06:09:22.076Z,67.10
2018-07-05T06:12:01.490Z,64.90
2018-07-05T06:14:40.981Z,64.50
2018-07-05T06:17:20.384Z,63.30
2018-07-05T06:19:59.799Z,59.60
2018-07-05T06:25:14.640Z,56.00
2018-07-05T06:27:54.284Z,53.00
2018-07-05T06:30:34.065Z,53.70
2018-07-05T06:33:13.686Z,56.00
2018-07-05T06:35:53.280Z,58.00
2018-07-05T06:41:09.793Z,57.80
2018-07-05T06:43:49.320Z,57.00
2018-07-05T06:46:33.910Z,58.50
2018-07-05T06:49:13.900Z,59.80
2018-07-05T06:51:53.955Z,59.30
2018-07-05T06:54:33.274Z,58.70
2018-07-05T06:57:13.016Z,56.80
2018-07-05T06:59:52.563Z,55.20
2018-07-05T07:02:32.145Z,56.10
2018-07-05T07:05:11.741Z,58.70
2018-07-05T07:07:52.582Z,60.00
2018-07-05T07:10:32.149Z,61.50
2018-07-05T07:13:12.927Z,62.70
2018-07-05T07:15:52.529Z,62.70
2018-07-05T07:18:32.160Z,61.60
2018-07-05T07:21:12.213Z,57.90
2018-07-05T07:23:52.048Z,55.00
2018-07-05T07:26:32.337Z,52.10
2018-07-05T07:29:11.964Z,49.60
2018-07-05T07:31:51.728Z,47.10
2018-07-05T07:34:31.224Z,44.00
2018-07-05T07:37:12.084Z,45.10
2018-07-05T07:39:51.581Z,45.90
2018-07-05T07:44:53.174Z,49.90
2018-07-05T07:47:29.015Z,48.40
2018-07-05T07:49:56.786Z,47.30
2018-07-05T07:52:24.024Z,44.30
2018-07-05T07:54:51.212Z,43.20
2018-07-05T07:57:26.218Z,41.70
2018-07-05T07:59:56.730Z,43.60
2018-07-05T08:02:28.327Z,44.20
2018-07-05T08:04:55.553Z,43.20
2018-07-05T08:07:26.841Z,42.80
2018-07-05T08:09:57.909Z,41.40
2018-07-05T08:12:26.103Z,41.60
2018-07-05T08:14:53.264Z,38.40
2018-07-05T08:17:27.258Z,37.30
2018-07-05T08:19:55.937Z,38.10
2018-07-05T08:22:23.168Z,41.30
2018-07-05T08:24:50.430Z,41.00
2018-07-05T08:27:17.630Z,41.20
2018-07-05T08:29:46.592Z,40.70
2018-07-05T08:32:13.774Z,42.40
2018-07-05T08:34:47.820Z,40.40
2018-07-05T08:37:15.021Z,40.40
2018-07-05T08:39:42.203Z,37.20
2018-07-05T08:42:09.385Z,36.50
2018-07-05T08:44:36.634Z,31.20
2018-07-05T10:01:17.345Z,30.00
2018-07-05T10:03:44.520Z,28.30
2018-07-05T10:06:11.823Z,29.70
2018-07-05T10:08:46.482Z,29.60
2018-07-05T10:11:13.671Z,28.70
2018-07-05T10:13:41.070Z,28.70
2018-07-05T10:16:08.080Z,28.00
2018-07-05T10:18:36.278Z,28.40
2018-07-05T10:21:03.885Z,28.30
2018-07-05T10:25:58.550Z,29.10
2018-07-05T10:28:25.725Z,27.90
2018-07-05T10:31:05.263Z,28.10
2018-07-05T10:33:48.921Z,26.60
2018-07-05T10:36:16.126Z,28.10
2018-07-05T10:38:47.386Z,31.00
2018-07-05T10:41:26.824Z,29.10
2018-07-05T10:44:06.318Z,28.10
2018-07-05T10:46:45.834Z,27.30
2018-07-05T10:49:25.382Z,27.40
2018-07-05T10:52:09.169Z,27.90
2018-07-05T10:54:48.735Z,30.90
2018-07-05T10:57:28.608Z,28.20
2018-07-05T11:00:08.172Z,27.80
2018-07-05T11:02:49.372Z,29.80
2018-07-05T11:05:28.978Z,29.60
2018-07-05T11:08:08.507Z,30.90
2018-07-05T11:10:48.184Z,29.40
2018-07-05T11:13:28.938Z,29.70
2018-07-05T11:16:08.787Z,30.80
2018-07-05T11:18:48.851Z,29.90
2018-07-05T11:21:28.538Z,28.40
2018-07-05T11:24:08.003Z,29.50
2018-07-05T11:26:47.610Z,28.10
2018-07-05T11:29:27.208Z,28.50
2018-07-05T11:32:10.492Z,30.20
2018-07-05T11:34:54.060Z,31.10
2018-07-05T11:37:33.493Z,32.10
2018-07-05T11:40:13.744Z,28.20
2018-07-05T11:42:53.532Z,28.20
2018-07-05T11:45:32.983Z,29.20
2018-07-05T11:48:12.598Z,28.70
2018-07-05T11:53:29.206Z,28.40
2018-07-05T11:56:08.919Z,29.10
2018-07-05T11:58:48.613Z,32.00
2018-07-05T12:01:28.126Z,33.10
2018-07-05T12:04:09.201Z,31.40
2018-07-05T12:06:50.234Z,31.50
2018-07-05T12:09:29.508Z,30.40
2018-07-05T12:12:13.787Z,30.60
2018-07-05T12:14:53.100Z,29.80
2018-07-05T12:17:32.625Z,29.90
2018-07-05T12:20:12.245Z,28.40
2018-07-05T12:22:53.089Z,27.30
2018-07-05T12:25:32.665Z,27.80
2018-07-05T12:28:12.057Z,29.30
2018-07-05T12:30:53.757Z,31.20
2018-07-05T12:33:33.342Z,30.80
2018-07-05T12:36:13.154Z,28.50
2018-07-05T12:38:52.722Z,28.50
2018-07-05T12:41:32.395Z,27.80
2018-07-05T12:44:13.221Z,27.10
2018-07-05T12:46:52.725Z,27.80
2018-07-05T12:52:24.286Z,27.30
2018-07-05T12:55:04.061Z,26.80
2018-07-05T12:57:43.617Z,27.30
2018-07-05T13:00:23.299Z,27.80
2018-07-05T13:03:02.909Z,28.60
2018-07-05T13:05:42.495Z,28.30
2018-07-05T13:08:22.136Z,28.70
2018-07-05T13:11:01.594Z,28.50
2018-07-05T13:13:42.519Z,28.40
2018-07-05T13:16:22.140Z,28.50
2018-07-05T13:19:03.012Z,26.80
2018-07-05T13:21:42.640Z,27.20
2018-07-05T13:24:22.228Z,26.30
2018-07-05T13:27:01.885Z,26.10
2018-07-05T13:29:41.303Z,27.50
2018-07-05T13:32:20.740Z,28.20
2018-07-05T13:35:02.914Z,30.60
2018-07-05T13:37:42.615Z,31.70
2018-07-05T13:40:22.530Z,31.00
2018-07-05T13:43:02.156Z,29.30
2018-07-05T13:48:15.444Z,29.00
2018-07-05T13:50:55.090Z,31.30
2018-07-05T13:53:34.623Z,29.60
2018-07-05T13:56:14.481Z,31.10
2018-07-05T13:58:54.364Z,32.00
2018-07-05T14:01:34.002Z,32.20
2018-07-05T14:04:13.589Z,30.00
2018-07-05T14:06:53.629Z,31.50
2018-07-05T14:09:33.246Z,32.80
2018-07-05T14:12:12.798Z,31.80
2018-07-05T14:14:52.857Z,32.10
2018-07-05T14:17:32.345Z,31.10
2018-07-05T14:20:11.789Z,30.50
2018-07-05T14:22:53.244Z,31.90
2018-07-05T14:25:32.694Z,31.40
2018-07-05T14:28:12.259Z,30.30
2018-07-05T14:30:52.839Z,31.80
2018-07-05T14:33:32.623Z,30.60
2018-07-05T14:36:12.203Z,33.00
2018-07-05T14:38:52.986Z,34.80
2018-07-05T14:41:32.970Z,32.70
2018-07-05T14:44:12.710Z,31.10
2018-07-05T14:46:53.419Z,32.00
2018-07-05T14:49:32.881Z,31.20
2018-07-05T14:52:12.437Z,29.60
2018-07-05T14:54:52.159Z,30.00
2018-07-05T14:57:33.215Z,32.30
2018-07-05T15:00:12.731Z,31.10
2018-07-05T15:02:52.276Z,28.90
2018-07-05T15:05:31.999Z,31.00
2018-07-05T15:08:11.543Z,32.20
2018-07-05T15:10:51.104Z,32.80
2018-07-05T15:13:32.862Z,33.30
2018-07-05T15:16:12.673Z,33.90
2018-07-05T15:18:52.347Z,33.70
2018-07-05T15:21:31.920Z,32.90
2018-07-05T15:24:11.483Z,33.10
2018-07-05T15:29:25.741Z,30.40
2018-07-05T15:32:05.379Z,31.20
2018-07-05T15:34:45.045Z,34.70
2018-07-05T15:37:24.399Z,35.40
2018-07-05T15:40:04.177Z,33.80
2018-07-05T15:42:43.862Z,32.50
2018-07-05T15:45:23.354Z,32.20
2018-07-05T15:48:03.413Z,31.70
2018-07-05T15:50:43.045Z,32.90
2018-07-05T15:53:22.781Z,34.80
2018-07-05T15:56:02.529Z,37.10
2018-07-05T15:58:42.207Z,38.10
2018-07-05T16:01:22.870Z,39.50
2018-07-05T16:04:02.522Z,38.90
2018-07-05T16:06:43.064Z,38.10
2018-07-05T16:09:22.525Z,36.90
2018-07-05T16:12:02.590Z,37.70
2018-07-05T16:14:42.301Z,37.20
2018-07-05T16:17:21.790Z,38.20
2018-07-05T16:22:54.577Z,36.40
2018-07-05T16:28:07.813Z,36.20
2018-07-05T16:30:47.492Z,36.00
2018-07-05T16:33:30.322Z,38.50
2018-07-05T16:36:13.912Z,40.60
2018-07-05T16:38:53.909Z,41.80
2018-07-05T16:41:33.501Z,42.60
2018-07-05T16:44:13.100Z,43.10
2018-07-05T16:46:52.713Z,43.60
2018-07-05T16:49:32.359Z,43.00
2018-07-05T16:52:12.779Z,43.50
2018-07-05T16:54:52.384Z,44.00
2018-07-05T17:00:09.321Z,44.60
2018-07-05T17:02:53.276Z,45.30
2018-07-05T17:05:32.734Z,45.10
2018-07-05T17:08:12.934Z,45.30
2018-07-05T17:10:52.585Z,45.60
2018-07-05T17:13:32.258Z,46.00
2018-07-05T17:16:11.942Z,46.10
2018-07-05T17:18:51.507Z,46.20
2018-07-05T17:21:33.728Z,46.40
2018-07-05T17:24:13.300Z,46.30
2018-07-05T17:26:52.515Z,46.60
2018-07-05T17:29:33.331Z,46.80
2018-07-05T17:32:13.180Z,46.90
2018-07-05T17:34:52.909Z,47.30
2018-07-05T17:37:32.673Z,47.70
2018-07-05T17:40:12.113Z,47.60
2018-07-05T17:42:52.680Z,47.70
2018-07-05T17:45:32.205Z,48.30
2018-07-05T17:48:11.830Z,49.30
2018-07-05T17:50:51.546Z,48.60
2018-07-05T17:53:33.440Z,49.00
2018-07-05T17:56:12.948Z,48.70
2018-07-05T17:58:53.094Z,48.00
2018-07-05T18:01:33.185Z,46.70
2018-07-05T18:06:46.361Z,46.40
2018-07-05T18:09:29.029Z,47.00
2018-07-05T18:12:09.694Z,47.00
2018-07-05T18:14:49.320Z,47.40
2018-07-05T18:17:32.702Z,47.00
2018-07-05T18:20:12.220Z,47.30
2018-07-05T18:25:43.111Z,47.80
2018-07-05T18:28:22.970Z,47.00
2018-07-05T18:31:02.457Z,46.50
2018-07-05T18:33:43.056Z,46.60
2018-07-05T18:36:22.558Z,46.60
2018-07-05T18:39:02.633Z,47.10
2018-07-05T18:41:42.142Z,47.60
2018-07-05T18:44:22.732Z,48.20
2018-07-05T18:47:02.395Z,48.40
2018-07-05T18:49:41.998Z,49.20
2018-07-05T18:52:21.545Z,50.50
2018-07-05T18:55:01.151Z,51.70
2018-07-05T18:57:40.671Z,52.40
2018-07-05T19:00:23.191Z,53.20
2018-07-05T19:03:02.710Z,53.80
2018-07-05T19:05:42.286Z,54.20
2018-07-05T19:08:23.226Z,54.10
2018-07-05T19:11:02.629Z,54.10
2018-07-05T19:13:42.333Z,54.90
2018-07-05T19:16:21.822Z,55.50
2018-07-05T19:19:01.394Z,56.00
2018-07-05T19:21:42.366Z,56.60
2018-07-05T19:24:22.999Z,56.40
2018-07-05T19:27:02.427Z,57.00
2018-07-05T19:29:42.827Z,56.90
2018-07-05T19:32:22.957Z,57.40
2018-07-05T19:35:02.397Z,58.00
2018-07-05T19:37:42.422Z,58.70
2018-07-05T19:40:22.054Z,59.10
2018-07-05T19:43:01.599Z,59.80
2018-07-05T19:45:41.111Z,60.80
2018-07-05T19:48:22.693Z,62.40
2018-07-05T19:51:02.708Z,63.90
2018-07-05T19:53:42.201Z,66.50
2018-07-05T19:56:21.975Z,68.90
2018-07-05T19:59:03.797Z,70.70
2018-07-05T20:01:43.450Z,72.90
2018-07-05T20:04:23.377Z,75.10
2018-07-05T20:07:03.382Z,77.30
2018-07-05T20:09:43.313Z,79.30
2018-07-05T20:12:23.511Z,81.30
2018-07-05T20:15:03.394Z,82.90
2018-07-05T20:17:42.970Z,84.90
2018-07-05T20:20:22.621Z,85.60
2018-07-05T20:25:39.594Z,88.30
2018-07-05T20:28:23.340Z,89.70
2018-07-05T20:31:02.950Z,90.40
2018-07-05T20:33:42.549Z,91.10
2018-07-05T20:36:21.997Z,91.60
2018-07-05T20:39:04.218Z,92.20
2018-07-05T20:41:44.427Z,92.40
2018-07-05T20:44:23.988Z,92.90
2018-07-05T20:47:03.730Z,93.20
2018-07-05T20:49:43.336Z,93.40
2018-07-05T20:52:23.485Z,93.90
2018-07-05T20:55:03.133Z,94.30
2018-07-05T20:57:42.473Z,94.80
2018-07-05T21:00:22.343Z,95.50
2018-07-05T21:03:02.571Z,96.00
2018-07-05T21:05:42.063Z,96.10
2018-07-05T21:08:22.534Z,96.30
2018-07-05T21:13:35.881Z,96.60
2018-07-05T21:16:15.409Z,96.50
2018-07-05T21:18:55.030Z,96.40
2018-07-05T21:21:35.037Z,96.20
2018-07-05T21:24:14.494Z,96.20
2018-07-05T21:26:53.968Z,96.50
2018-07-05T21:29:33.396Z,96.60
2018-07-05T21:32:12.865Z,96.80
2018-07-05T21:34:53.017Z,97.10
2018-07-05T21:37:32.705Z,97.40
2018-07-05T21:40:12.499Z,97.90
2018-07-05T21:42:52.306Z,98.50
2018-07-05T21:45:33.094Z,98.90
2018-07-05T21:48:12.447Z,98.90
2018-07-05T21:50:52.792Z,99.20
2018-07-05T21:53:32.937Z,99.50
2018-07-05T21:56:12.734Z,99.80
2018-07-05T21:58:52.237Z,99.80
2018-07-05T22:01:31.724Z,99.90
2018-07-05T22:04:11.322Z,99.70
2018-07-05T22:06:50.881Z,99.90
2018-07-05T22:09:32.283Z,99.90
2018-07-05T22:12:13.090Z,99.90
2018-07-05T22:14:52.651Z,99.90
2018-07-05T22:17:37.733Z,99.90
2018-07-05T22:23:14.025Z,99.90
2018-07-05T22:25:59.301Z,99.90
2018-07-05T22:28:48.781Z,99.90
2018-07-05T22:31:30.932Z,99.90
2018-07-05T22:34:12.713Z,99.90
2018-07-05T22:36:52.168Z,99.90
2018-07-05T22:39:32.824Z,99.90
2018-07-05T22:42:12.297Z,99.90
2018-07-05T22:44:52.737Z,99.90
2018-07-05T22:47:32.401Z,99.90
2018-07-05T22:50:12.874Z,99.90
2018-07-05T22:52:53.130Z,99.90
2018-07-05T22:55:32.529Z,99.90
2018-07-05T22:58:12.091Z,99.90
2018-07-05T23:00:54.198Z,99.90
2018-07-05T23:03:34.693Z,99.90
2018-07-05T23:06:14.318Z,99.90
2018-07-05T23:08:56.250Z,99.90
2018-07-05T23:11:39.540Z,99.90
2018-07-05T23:14:19.541Z,99.90
2018-07-05T23:17:03.680Z,99.90
2018-07-05T23:19:43.629Z,99.90
2018-07-05T23:22:25.274Z,99.90
2018-07-05T23:25:05.789Z,99.90
2018-07-05T23:27:51.670Z,99.90
2018-07-05T23:30:32.981Z,99.90
2018-07-05T23:33:12.689Z,99.90
2018-07-05T23:35:54.132Z,99.90
2018-07-05T23:38:33.697Z,99.90
2018-07-05T23:41:13.045Z,99.90
2018-07-05T23:43:52.685Z,99.90
2018-07-05T23:46:33.422Z,99.90
2018-07-05T23:49:12.823Z,99.90
2018-07-05T23:54:42.637Z,99.90
2018-07-05T23:57:23.054Z,99.90
